createdAt,value
2019-01-25T00:00:00.552Z,33.73
2019-01-25T00:05:55.578Z,31.45
2019-01-25T00:11:50.620Z,34.14
2019-01-25T00:17:45.572Z,33.82
2019-01-25T00:23:40.604Z,32.13
2019-01-25T00:29:35.573Z,31.74
2019-01-25T00:35:30.575Z,32.99
2019-01-25T00:41:25.596Z,33.19
2019-01-25T00:47:20.604Z,32.31
2019-01-25T00:53:15.593Z,36.18
2019-01-25T00:59:10.594Z,32.7
2019-01-25T01:05:05.612Z,37.99
2019-01-25T01:11:00.588Z,38.44
2019-01-25T01:16:55.607Z,36.31
2019-01-25T01:22:50.591Z,33.54
2019-01-25T01:28:45.597Z,33.87
2019-01-25T01:34:40.620Z,29.9
2019-01-25T01:40:35.617Z,35.6
2019-01-25T01:46:30.627Z,34.71
2019-01-25T01:52:25.636Z,33.69
2019-01-25T01:58:20.607Z,36.46
2019-01-25T02:04:15.636Z,34
2019-01-25T02:10:10.645Z,31.73
2019-01-25T02:16:05.624Z,27.7
2019-01-25T02:22:00.709Z,35.38
2019-01-25T02:27:55.653Z,26.62
2019-01-25T02:33:50.633Z,32.55
2019-01-25T02:39:45.665Z,30.23
2019-01-25T02:45:40.699Z,29.09
2019-01-25T02:51:35.645Z,25.55
2019-01-25T02:57:30.707Z,25.13
2019-01-25T03:03:25.648Z,24.81
2019-01-25T03:09:20.665Z,20.97
2019-01-25T03:15:15.699Z,21.97
2019-01-25T03:21:10.660Z,24.66
2019-01-25T03:27:05.669Z,22.36
2019-01-25T03:33:00.683Z,17.19
2019-01-25T03:38:55.673Z,17.32
2019-01-25T03:44:50.699Z,16.54
2019-01-25T03:50:45.748Z,16.91
2019-01-25T03:56:40.694Z,18.64
2019-01-25T04:02:35.697Z,17.58
2019-01-25T04:08:30.693Z,19.33
2019-01-25T04:14:25.714Z,17.12
2019-01-25T04:20:20.747Z,17.32
2019-01-25T04:26:15.731Z,17.02
2019-01-25T04:32:10.768Z,16.85
2019-01-25T04:38:05.705Z,18.53
2019-01-25T04:44:00.713Z,18.5
2019-01-25T04:49:55.746Z,23.46
2019-01-25T04:55:50.717Z,25.01
2019-01-25T05:01:45.722Z,18.76
2019-01-25T05:07:40.720Z,21.15
2019-01-25T05:13:35.729Z,21.09
2019-01-25T05:19:30.779Z,22.2
2019-01-25T05:25:25.725Z,19.8
2019-01-25T05:31:20.734Z,25.17
2019-01-25T05:37:15.745Z,23.68
2019-01-25T05:43:10.746Z,20.25
2019-01-25T05:49:06.228Z,20.36
2019-01-25T05:55:00.781Z,19.94
2019-01-25T06:00:55.755Z,23.97
2019-01-25T06:06:50.752Z,23.07
2019-01-25T06:12:45.764Z,20.59
2019-01-25T06:18:40.760Z,23.48
2019-01-25T06:24:35.775Z,24.38
2019-01-25T06:30:30.763Z,24.94
2019-01-25T06:36:25.791Z,23.89
2019-01-25T06:42:20.777Z,19.87
2019-01-25T06:48:15.766Z,20.89
2019-01-25T06:54:10.794Z,21.42
2019-01-25T07:00:05.805Z,17.36
2019-01-25T07:06:00.773Z,17.73
2019-01-25T07:11:55.774Z,20.83
2019-01-25T07:17:50.790Z,17.27
2019-01-25T07:23:45.791Z,18.85
2019-01-25T07:29:40.778Z,18.81
2019-01-25T07:35:35.820Z,18.09
2019-01-25T07:41:30.797Z,22.88
2019-01-25T07:47:25.965Z,19.61
2019-01-25T07:53:22.183Z,17.54
2019-01-25T07:59:15.835Z,23.82
2019-01-25T08:05:10.962Z,18.09
2019-01-25T08:11:05.833Z,22.09
2019-01-25T08:17:00.835Z,19.04
2019-01-25T08:22:55.807Z,19.09
2019-01-25T08:28:50.825Z,17.8
2019-01-25T08:34:45.902Z,17.33
2019-01-25T08:40:41.950Z,17.23
2019-01-25T08:46:36.029Z,21
2019-01-25T08:52:30.853Z,16.57
2019-01-25T08:58:25.876Z,17.19
2019-01-25T09:04:20.863Z,16.18
2019-01-25T09:10:15.834Z,21.77
2019-01-25T09:16:10.843Z,17.56
2019-01-25T09:22:05.858Z,14.33
2019-01-25T09:28:00.874Z,15.07
2019-01-25T09:33:55.865Z,14.09
2019-01-25T09:39:50.857Z,14.58
2019-01-25T09:45:45.862Z,13.72
2019-01-25T09:51:40.844Z,14.87
2019-01-25T09:57:35.883Z,14.35
2019-01-25T10:03:30.878Z,17.01
2019-01-25T10:09:25.875Z,20.81
2019-01-25T10:15:20.901Z,15.35
2019-01-25T10:21:15.883Z,15.48
2019-01-25T10:27:10.884Z,13.25
2019-01-25T10:33:05.888Z,15.85
2019-01-25T10:39:00.885Z,16.17
2019-01-25T10:44:55.894Z,19.53
2019-01-25T10:50:50.907Z,14.06
2019-01-25T10:56:45.911Z,16.31
2019-01-25T11:02:40.913Z,14.68
2019-01-25T11:08:35.932Z,16.85
2019-01-25T11:14:30.964Z,17.45
2019-01-25T11:20:25.915Z,17.24
2019-01-25T11:26:20.890Z,13.25
2019-01-25T11:32:15.910Z,18.23
2019-01-25T11:38:10.922Z,16.89
2019-01-25T11:44:05.925Z,20.28
2019-01-25T11:50:00.947Z,10.8
2019-01-25T11:55:55.963Z,16.1
2019-01-25T12:01:50.927Z,16.98
2019-01-25T12:07:45.955Z,13.63
2019-01-25T12:13:40.989Z,12.11
2019-01-25T12:19:35.948Z,14.37
2019-01-25T12:25:30.949Z,16.72
2019-01-25T12:31:25.935Z,15.78
2019-01-25T12:37:20.954Z,13.56
2019-01-25T12:43:16.022Z,15.21
2019-01-25T12:49:10.958Z,16.86
2019-01-25T12:55:05.963Z,11.7
2019-01-25T13:01:00.937Z,11.58
2019-01-25T13:06:55.985Z,13.18
2019-01-25T13:12:50.986Z,10.65
2019-01-25T13:18:45.950Z,12.86
2019-01-25T13:24:40.972Z,14.1
2019-01-25T13:30:35.990Z,14.18
2019-01-25T13:36:30.998Z,16.96
2019-01-25T13:42:26.007Z,15.03
2019-01-25T13:48:20.973Z,14.13
2019-01-25T13:54:15.987Z,13.63
2019-01-25T14:00:11.012Z,13.05
2019-01-25T14:06:06.013Z,14.34
2019-01-25T14:12:00.995Z,12.97
2019-01-25T14:17:56.011Z,14.22
2019-01-25T14:23:50.993Z,14.34
2019-01-25T14:30:06.482Z,16.92
2019-01-25T14:35:41.012Z,14.72
2019-01-25T14:41:36.021Z,20.42
2019-01-25T14:47:31.012Z,17.79
2019-01-25T14:53:26.068Z,19.97
2019-01-25T14:59:21.009Z,19.55
2019-01-25T15:05:16.043Z,17.42
2019-01-25T15:11:11.037Z,20.07
2019-01-25T15:17:06.062Z,18.11
2019-01-25T15:23:01.067Z,19.1
2019-01-25T15:28:56.023Z,17.76
2019-01-25T15:34:51.056Z,16.93
2019-01-25T15:40:46.067Z,16.47
2019-01-25T15:46:41.036Z,21.43
2019-01-25T15:52:36.114Z,19.42
2019-01-25T15:58:31.065Z,19.56
2019-01-25T16:04:26.117Z,18.11
2019-01-25T16:10:21.045Z,19.2
2019-01-25T16:16:16.099Z,22.33
2019-01-25T16:22:11.067Z,22.16
2019-01-25T16:28:06.098Z,20.99
2019-01-25T16:34:01.081Z,17.67
2019-01-25T16:39:56.067Z,19.09
2019-01-25T16:45:51.098Z,21.03
2019-01-25T16:51:46.136Z,17.55
2019-01-25T16:57:41.099Z,16.38
2019-01-25T17:03:36.091Z,22.14
2019-01-25T17:09:31.084Z,18.08
2019-01-25T17:15:26.731Z,17.06
2019-01-25T17:21:21.083Z,19.88
2019-01-25T17:27:16.095Z,16.98
2019-01-25T17:33:11.120Z,18.83
2019-01-25T17:39:06.101Z,17.43
2019-01-25T17:45:01.126Z,14.35
2019-01-25T17:50:56.087Z,16.24
2019-01-25T17:56:51.112Z,26.52
2019-01-25T18:02:46.107Z,17.43
2019-01-25T18:08:41.119Z,19.28
2019-01-25T18:14:36.121Z,17.64
2019-01-25T18:20:31.155Z,15.55
2019-01-25T18:26:26.193Z,18.7
2019-01-25T18:32:21.183Z,15.44
2019-01-25T18:38:16.136Z,12.78
2019-01-25T18:44:11.187Z,12.24
2019-01-25T18:50:06.144Z,16.51
2019-01-25T18:56:01.179Z,14.43
2019-01-25T19:01:56.155Z,15.45
2019-01-25T19:07:51.158Z,15.16
2019-01-25T19:13:46.152Z,14.87
2019-01-25T19:19:41.186Z,13.84
2019-01-25T19:25:36.163Z,16.07
2019-01-25T19:31:31.164Z,15.7
2019-01-25T19:37:26.152Z,14.37
2019-01-25T19:43:21.181Z,15.55
2019-01-25T19:49:16.165Z,17.94
2019-01-25T19:55:11.219Z,17.49
2019-01-25T20:01:06.176Z,17.56
2019-01-25T20:07:01.182Z,15.75
2019-01-25T20:12:56.181Z,19.69
2019-01-25T20:18:51.179Z,22.06
2019-01-25T20:24:46.186Z,19.9
2019-01-25T20:30:41.195Z,19.77
2019-01-25T20:36:36.217Z,25.54
2019-01-25T20:42:31.194Z,22.44
2019-01-25T20:48:26.178Z,25.18
2019-01-25T20:54:21.214Z,29.9
2019-01-25T21:00:16.217Z,26.53
2019-01-25T21:06:11.206Z,24.87
2019-01-25T21:12:06.208Z,30.3
2019-01-25T21:18:01.244Z,25.22
2019-01-25T21:23:56.253Z,27.09
2019-01-25T21:29:51.263Z,31.41
2019-01-25T21:35:46.222Z,24.65
2019-01-25T21:41:41.223Z,29.57
2019-01-25T21:47:36.245Z,30.03
2019-01-25T21:53:31.262Z,28.01
2019-01-25T21:59:26.225Z,24
2019-01-25T22:05:21.249Z,25.6
2019-01-25T22:11:16.242Z,24.84
2019-01-25T22:17:11.246Z,24.72
2019-01-25T22:23:06.238Z,20.81
2019-01-25T22:29:01.246Z,20.33
2019-01-25T22:34:56.341Z,17.42
2019-01-25T22:40:51.297Z,21.27
2019-01-25T22:46:46.268Z,23.08
2019-01-25T22:52:41.276Z,22.41
2019-01-25T22:58:36.279Z,22.24
2019-01-25T23:04:31.266Z,23.8
2019-01-25T23:10:26.267Z,22.65
2019-01-25T23:16:21.274Z,14.95
2019-01-25T23:22:16.270Z,17.65
2019-01-25T23:28:11.281Z,21.01
2019-01-25T23:34:06.318Z,21.32
2019-01-25T23:40:01.333Z,19.07
2019-01-25T23:45:56.336Z,17.7
2019-01-25T23:51:51.271Z,46.78
2019-01-25T23:57:46.294Z,24.68
